Time;durP1;ratioP1;P1;durP2;ratioP2;P2;SDS_P1;SDS_P2;PMS_P1;PMS_P2;Temp;Humidity;BMP_temperature;BMP_pressure;BME280_temperature;BME280_humidity;BME280_pressure;Samples;Min_cycle;Max_cycle;Signal;HPM_P1;HPM_P2
2022/07/29 00:01:09;;;;;;;0.75;0.40;;;23.30;64.20;;;;;;5041616;28;45249;-70
2022/07/29 00:03:35;;;;;;;0.80;0.50;;;23.30;64.00;;;;;;5031757;27;45347;-71
2022/07/29 00:06:02;;;;;;;0.93;0.70;;;23.30;64.40;;;;;;5031950;27;45422;-70
2022/07/29 00:08:29;;;;;;;1.10;0.50;;;23.30;63.90;;;;;;5036320;28;48181;-70
2022/07/29 00:10:56;;;;;;;1.45;0.50;;;23.20;63.80;;;;;;5028087;27;45660;-70
2022/07/29 00:13:24;;;;;;;0.45;0.45;;;23.20;63.80;;;;;;5032844;27;45409;-70
2022/07/29 00:15:51;;;;;;;1.15;0.60;;;23.20;63.80;;;;;;5029788;27;45273;-70
2022/07/29 00:18:17;;;;;;;1.33;0.50;;;23.20;63.80;;;;;;5035446;27;47427;-70
2022/07/29 00:20:44;;;;;;;1.27;0.60;;;23.20;63.80;;;;;;5027580;28;45421;-70
2022/07/29 00:23:11;;;;;;;1.25;0.73;;;23.20;64.00;;;;;;5042060;27;45537;-70
2022/07/29 00:25:38;;;;;;;0.47;0.40;;;23.20;64.10;;;;;;5028639;28;45292;-70
2022/07/29 00:28:05;;;;;;;0.88;0.60;;;23.20;64.00;;;;;;5035176;27;46095;-70
2022/07/29 00:30:33;;;;;;;0.90;0.60;;;23.20;64.00;;;;;;5055697;27;45372;-70
2022/07/29 00:33:00;;;;;;;0.75;0.47;;;23.20;64.00;;;;;;5087362;27;45408;-69
2022/07/29 00:35:45;;;;;;;1.67;0.60;;;23.20;64.00;;;;;;5034373;28;45648;-69
2022/07/29 00:38:13;;;;;;;1.45;0.60;;;23.20;64.00;;;;;;5033683;28;46637;-70
2022/07/29 00:40:40;;;;;;;1.52;0.68;;;23.20;64.10;;;;;;5036362;28;45496;-70
2022/07/29 00:43:06;;;;;;;2.45;0.68;;;23.20;64.00;;;;;;5040307;28;45531;-69
2022/07/29 00:45:35;;;;;;;1.67;0.80;;;23.20;64.10;;;;;;5041371;28;45339;-70
2022/07/29 00:48:03;;;;;;;1.08;0.70;;;23.20;64.00;;;;;;5079762;27;46462;-69
2022/07/29 00:50:30;;;;;;;1.30;0.60;;;23.30;64.10;;;;;;5057187;27;45434;-70
2022/07/29 00:52:56;;;;;;;0.95;0.52;;;23.20;64.00;;;;;;5064675;27;45563;-70
2022/07/29 00:55:23;;;;;;;0.77;0.40;;;23.20;63.90;;;;;;5031601;28;45529;-70
2022/07/29 00:57:51;;;;;;;1.02;0.60;;;23.20;64.00;;;;;;5052530;27;45474;-69
2022/07/29 01:00:20;;;;;;;2.85;0.75;;;23.20;64.00;;;;;;5045721;28;45470;-70
2022/07/29 01:02:49;;;;;;;1.17;0.60;;;23.20;64.00;;;;;;5053794;27;45226;-69
2022/07/29 01:05:18;;;;;;;1.95;0.73;;;23.20;64.00;;;;;;5044867;27;45319;-69
2022/07/29 01:07:46;;;;;;;0.50;0.50;;;23.20;64.00;;;;;;5040949;28;48523;-69
2022/07/29 01:10:15;;;;;;;0.50;0.40;;;23.20;64.00;;;;;;5059239;27;45283;-70
2022/07/29 01:12:44;;;;;;;0.40;0.40;;;23.20;63.90;;;;;;5042757;27;45477;-70
2022/07/29 01:15:11;;;;;;;0.70;0.40;;;23.20;63.90;;;;;;5051460;27;45535;-70
2022/07/29 01:17:44;;;;;;;1.48;0.50;;;23.20;63.90;;;;;;5035137;27;46058;-70
2022/07/29 01:20:18;;;;;;;1.30;0.70;;;23.20;63.80;;;;;;5074299;27;45895;-70
2022/07/29 01:23:12;;;;;;;0.40;0.40;;;23.20;63.80;;;;;;5043889;27;45377;-70
2022/07/29 01:25:55;;;;;;;1.45;0.57;;;23.20;63.60;;;;;;5050476;27;45283;-69
2022/07/29 01:28:55;;;;;;;0.90;0.65;;;23.20;63.60;;;;;;5082138;27;45474;-70
2022/07/29 01:31:29;;;;;;;1.27;0.70;;;23.20;63.60;;;;;;5035805;28;45310;-69
2022/07/29 01:33:59;;;;;;;1.02;0.60;;;23.20;63.60;;;;;;5079687;27;45527;-70
2022/07/29 01:36:32;;;;;;;0.70;0.60;;;23.20;63.70;;;;;;5047242;27;45376;-69
2022/07/29 01:39:06;;;;;;;1.05;0.47;;;23.20;63.80;;;;;;5038586;27;47379;-70
2022/07/29 01:41:37;;;;;;;0.60;0.50;;;23.20;63.80;;;;;;5041461;28;45645;-70
2022/07/29 01:44:12;;;;;;;2.92;0.68;;;23.20;63.80;;;;;;5040654;28;45393;-70
2022/07/29 01:46:44;;;;;;;0.70;0.57;;;23.20;63.70;;;;;;5037863;27;45543;-70
2022/07/29 01:49:15;;;;;;;2.00;0.80;;;23.20;63.80;;;;;;5036435;27;45328;-70
2022/07/29 01:51:47;;;;;;;0.70;0.60;;;23.20;63.80;;;;;;5040882;28;45336;-70
2022/07/29 01:54:19;;;;;;;0.63;0.50;;;23.20;63.80;;;;;;5035246;28;45343;-70
2022/07/29 01:56:49;;;;;;;0.70;0.60;;;23.20;63.80;;;;;;5052950;27;45358;-70
2022/07/29 01:59:19;;;;;;;0.60;0.50;;;23.20;63.70;;;;;;5034717;27;47014;-69
2022/07/29 02:01:50;;;;;;;1.23;0.68;;;23.20;63.80;;;;;;5035277;27;45349;-70
2022/07/29 02:04:19;;;;;;;1.23;0.70;;;23.20;63.90;;;;;;5057474;27;45718;-70
2022/07/29 02:06:49;;;;;;;0.63;0.50;;;23.20;63.90;;;;;;5028405;27;45362;-70
2022/07/29 02:09:18;;;;;;;1.38;0.50;;;23.20;64.00;;;;;;5032273;28;47883;-70
2022/07/29 02:11:50;;;;;;;1.88;1.02;;;23.20;63.90;;;;;;5033589;28;45371;-70
2022/07/29 02:14:19;;;;;;;0.70;0.50;;;23.20;63.70;;;;;;5036860;28;45373;-69
2022/07/29 02:16:47;;;;;;;0.82;0.57;;;23.20;63.90;;;;;;5039321;28;45583;-69
2022/07/29 02:19:15;;;;;;;0.75;0.50;;;23.20;63.70;;;;;;5040631;27;45416;-70
2022/07/29 02:21:43;;;;;;;0.80;0.60;;;23.20;63.60;;;;;;5038997;28;45328;-70
2022/07/29 02:24:12;;;;;;;1.65;0.75;;;23.20;63.40;;;;;;5037569;28;45554;-69
2022/07/29 02:26:41;;;;;;;0.90;0.60;;;23.20;63.30;;;;;;5038596;28;45538;-70
2022/07/29 02:29:10;;;;;;;2.58;0.70;;;23.20;63.00;;;;;;5044209;28;46418;-70
2022/07/29 02:31:40;;;;;;;0.80;0.50;;;23.20;63.10;;;;;;5043222;28;46202;-70
2022/07/29 02:34:09;;;;;;;1.55;0.60;;;23.20;63.10;;;;;;5038892;28;45270;-69
2022/07/29 02:36:37;;;;;;;1.38;0.65;;;23.20;63.00;;;;;;5038218;27;45268;-70
2022/07/29 02:39:05;;;;;;;0.73;0.60;;;23.20;62.80;;;;;;5037928;27;48063;-69
2022/07/29 02:41:38;;;;;;;1.60;0.70;;;23.20;62.90;;;;;;5027369;28;45692;-70
2022/07/29 02:44:10;;;;;;;1.15;0.70;;;23.20;62.80;;;;;;5037890;27;45335;-70
2022/07/29 02:46:42;;;;;;;2.42;0.60;;;23.20;62.40;;;;;;5037862;28;45337;-70
2022/07/29 02:49:14;;;;;;;1.13;0.50;;;23.10;62.50;;;;;;5034106;28;46097;-70
2022/07/29 02:51:45;;;;;;;1.42;0.60;;;23.20;62.90;;;;;;5037558;28;45288;-70
2022/07/29 02:54:20;;;;;;;1.70;0.70;;;23.10;62.80;;;;;;5036800;28;45242;-70
2022/07/29 02:56:48;;;;;;;1.70;0.73;;;23.10;62.90;;;;;;5039279;28;45370;-70
2022/07/29 02:59:21;;;;;;;0.90;0.70;;;23.10;63.00;;;;;;5038361;28;45683;-70
2022/07/29 03:01:50;;;;;;;1.25;0.77;;;23.10;63.00;;;;;;5038858;27;45379;-70
2022/07/29 03:04:18;;;;;;;2.30;0.82;;;23.10;63.30;;;;;;5036792;27;45661;-69
2022/07/29 03:06:46;;;;;;;1.13;0.60;;;23.10;63.60;;;;;;5036583;28;45389;-69
2022/07/29 03:09:14;;;;;;;1.65;0.80;;;23.10;64.20;;;;;;5037388;28;45385;-70
2022/07/29 03:11:42;;;;;;;0.65;0.50;;;23.10;64.60;;;;;;5037575;28;45310;-70
2022/07/29 03:14:09;;;;;;;0.95;0.70;;;23.20;65.60;;;;;;5037359;28;45230;-69
2022/07/29 03:16:37;;;;;;;0.88;0.40;;;23.10;65.80;;;;;;5037609;27;45412;-69
2022/07/29 03:19:06;;;;;;;0.88;0.65;;;23.10;66.70;;;;;;5037625;27;48219;-69
2022/07/29 03:21:33;;;;;;;1.27;0.52;;;23.10;66.70;;;;;;5031019;28;45286;-70
2022/07/29 03:23:59;;;;;;;1.08;0.68;;;23.10;67.60;;;;;;5038324;27;45442;-69
2022/07/29 03:26:26;;;;;;;1.17;0.73;;;23.10;68.00;;;;;;5037862;28;45331;-69
2022/07/29 03:28:53;;;;;;;1.50;0.70;;;23.10;67.80;;;;;;5037683;28;48033;-69
2022/07/29 03:31:20;;;;;;;0.88;0.70;;;23.10;68.40;;;;;;5036721;28;45488;-70
2022/07/29 03:33:47;;;;;;;2.08;0.60;;;23.10;68.70;;;;;;5038248;28;45305;-70
2022/07/29 03:36:15;;;;;;;0.93;0.55;;;23.10;68.80;;;;;;5037968;28;45249;-70
2022/07/29 03:38:44;;;;;;;2.58;0.85;;;23.10;69.20;;;;;;5038661;28;47375;-70
2022/07/29 03:41:13;;;;;;;0.85;0.50;;;23.10;69.10;;;;;;5033038;27;45516;-70
2022/07/29 03:43:43;;;;;;;0.57;0.57;;;23.10;69.10;;;;;;5038300;28;45504;-70
2022/07/29 03:46:12;;;;;;;2.03;0.82;;;23.00;69.30;;;;;;5037447;27;45543;-69
2022/07/29 03:48:47;;;;;;;2.35;1.08;;;23.00;69.50;;;;;;5037061;28;47337;-70
2022/07/29 03:51:15;;;;;;;0.73;0.55;;;23.00;69.50;;;;;;5035023;28;45452;-69
2022/07/29 03:53:43;;;;;;;0.88;0.60;;;23.00;69.30;;;;;;5030883;27;45330;-70
2022/07/29 03:56:12;;;;;;;1.38;0.60;;;23.00;69.30;;;;;;5037226;28;45433;-70
2022/07/29 03:58:39;;;;;;;1.58;0.68;;;23.00;69.40;;;;;;5037312;28;45587;-69
2022/07/29 04:01:07;;;;;;;0.90;0.50;;;23.00;69.30;;;;;;5034976;28;45277;-70
2022/07/29 04:03:34;;;;;;;0.75;0.52;;;23.00;69.30;;;;;;5039678;28;45314;-70
2022/07/29 04:06:05;;;;;;;0.85;0.70;;;23.00;69.50;;;;;;5037299;27;45565;-70
2022/07/29 04:08:33;;;;;;;0.82;0.60;;;23.00;69.50;;;;;;5037875;27;48535;-69
2022/07/29 04:11:00;;;;;;;1.30;0.70;;;23.00;69.60;;;;;;5036887;28;45394;-70
2022/07/29 04:13:27;;;;;;;1.40;0.68;;;23.00;69.50;;;;;;5037700;28;45427;-69
2022/07/29 04:15:53;;;;;;;1.13;0.57;;;23.00;69.60;;;;;;5037589;27;45330;-69
2022/07/29 04:18:20;;;;;;;1.08;0.70;;;23.00;69.60;;;;;;5035489;27;46314;-70
2022/07/29 04:20:47;;;;;;;1.67;0.63;;;23.00;69.60;;;;;;5036943;28;45320;-70
2022/07/29 04:23:14;;;;;;;0.80;0.60;;;23.00;69.60;;;;;;5034770;28;45293;-69
2022/07/29 04:25:43;;;;;;;0.77;0.50;;;23.00;69.70;;;;;;5037366;27;45533;-70
2022/07/29 04:28:10;;;;;;;0.70;0.60;;;23.00;69.70;;;;;;5033873;28;47530;-69
2022/07/29 04:30:38;;;;;;;1.13;0.80;;;23.00;69.60;;;;;;5035469;27;45396;-69
2022/07/29 04:33:07;;;;;;;0.70;0.60;;;23.00;70.70;;;;;;5037153;28;45413;-70
2022/07/29 04:35:36;;;;;;;0.95;0.82;;;23.00;69.70;;;;;;5029857;28;45301;-70
2022/07/29 04:38:03;;;;;;;0.77;0.52;;;23.00;69.80;;;;;;5036714;27;47565;-69
2022/07/29 04:40:30;;;;;;;2.45;0.60;;;23.00;69.80;;;;;;5036076;27;45330;-70
2022/07/29 04:42:58;;;;;;;0.60;0.60;;;22.90;69.70;;;;;;5035208;27;45631;-70
2022/07/29 04:45:25;;;;;;;1.25;0.52;;;23.00;69.80;;;;;;5036504;27;45535;-69
2022/07/29 04:47:52;;;;;;;0.80;0.50;;;23.00;69.80;;;;;;5035749;28;48883;-70
2022/07/29 04:50:18;;;;;;;1.00;0.52;;;22.90;69.70;;;;;;5028241;28;45402;-70
2022/07/29 04:52:45;;;;;;;0.98;0.60;;;22.90;69.70;;;;;;5037617;28;45281;-69
2022/07/29 04:55:12;;;;;;;1.35;0.50;;;23.00;69.80;;;;;;5034793;28;45564;-70
2022/07/29 04:57:39;;;;;;;0.90;0.60;;;23.00;69.70;;;;;;5036912;28;46624;-70
2022/07/29 05:00:09;;;;;;;1.42;0.57;;;22.90;69.80;;;;;;5034351;28;45473;-69
2022/07/29 05:02:35;;;;;;;4.32;0.60;;;23.00;69.90;;;;;;5037297;27;45395;-69
2022/07/29 05:05:02;;;;;;;0.77;0.55;;;23.00;69.90;;;;;;5036667;27;45561;-70
2022/07/29 05:07:29;;;;;;;1.33;0.60;;;23.00;69.80;;;;;;5036416;27;46414;-69
2022/07/29 05:09:56;;;;;;;0.85;0.63;;;23.00;69.80;;;;;;5036607;28;45414;-70
2022/07/29 05:12:23;;;;;;;1.10;0.50;;;23.00;69.80;;;;;;5034787;27;45318;-69
2022/07/29 05:14:50;;;;;;;0.52;0.50;;;23.00;69.80;;;;;;5032029;28;45406;-69
2022/07/29 05:17:18;;;;;;;0.73;0.63;;;23.00;69.70;;;;;;5035769;27;46601;-69
2022/07/29 05:19:45;;;;;;;1.27;0.57;;;23.00;69.80;;;;;;5036277;28;45495;-69
2022/07/29 05:22:12;;;;;;;1.33;0.80;;;23.00;69.60;;;;;;5035948;27;45362;-70
2022/07/29 05:24:39;;;;;;;0.93;0.63;;;23.00;69.60;;;;;;5036380;27;45560;-69
2022/07/29 05:27:05;;;;;;;1.77;0.70;;;23.00;69.60;;;;;;5034294;27;46319;-70
2022/07/29 05:29:33;;;;;;;2.15;1.00;;;23.00;69.60;;;;;;5034933;27;45361;-70
2022/07/29 05:31:59;;;;;;;1.45;0.77;;;23.00;69.80;;;;;;5039886;28;45459;-69
2022/07/29 05:34:27;;;;;;;0.98;0.80;;;23.00;69.80;;;;;;5037796;27;45269;-69
2022/07/29 05:36:54;;;;;;;1.17;0.90;;;23.00;69.80;;;;;;5039639;28;46633;-70
2022/07/29 05:39:21;;;;;;;1.35;0.98;;;23.00;69.70;;;;;;5038705;28;45342;-70
2022/07/29 05:41:48;;;;;;;1.05;0.90;;;23.00;69.80;;;;;;5035012;27;45450;-70
2022/07/29 05:44:15;;;;;;;0.95;0.80;;;23.00;69.90;;;;;;5038013;28;45439;-70
2022/07/29 05:46:42;;;;;;;1.10;0.70;;;23.00;70.00;;;;;;5039826;28;46123;-69
2022/07/29 05:49:08;;;;;;;1.25;0.80;;;23.00;70.00;;;;;;5037077;28;45370;-69
2022/07/29 05:51:37;;;;;;;1.15;0.80;;;23.00;70.10;;;;;;5039067;28;45422;-69
2022/07/29 05:54:04;;;;;;;0.93;0.80;;;23.00;70.10;;;;;;5037565;27;45424;-69
2022/07/29 05:56:30;;;;;;;1.63;0.77;;;23.00;70.10;;;;;;5037580;28;46177;-70
2022/07/29 05:58:58;;;;;;;0.75;0.60;;;23.00;70.10;;;;;;5038625;27;45431;-70
2022/07/29 06:01:25;;;;;;;1.85;1.05;;;23.00;70.20;;;;;;5032896;27;45400;-70
2022/07/29 06:03:52;;;;;;;1.05;0.77;;;23.00;70.20;;;;;;5038520;27;45376;-69
2022/07/29 06:06:19;;;;;;;2.35;0.90;;;23.00;70.40;;;;;;5038731;27;46606;-70
2022/07/29 06:08:47;;;;;;;1.63;0.80;;;23.00;70.40;;;;;;5050167;28;45340;-70
2022/07/29 06:11:14;;;;;;;2.05;1.08;;;23.00;70.40;;;;;;5043864;28;45330;-69
2022/07/29 06:13:41;;;;;;;3.42;1.17;;;23.00;70.50;;;;;;5038060;27;45529;-69
2022/07/29 06:16:07;;;;;;;1.88;0.88;;;23.00;70.70;;;;;;5036005;28;47260;-70
2022/07/29 06:18:34;;;;;;;1.13;0.75;;;23.00;70.70;;;;;;5033041;28;45249;-69
2022/07/29 06:21:01;;;;;;;1.70;0.70;;;23.00;70.70;;;;;;5038586;27;45456;-71
2022/07/29 06:23:28;;;;;;;1.77;0.90;;;23.00;70.60;;;;;;5037606;28;45833;-70
2022/07/29 06:25:56;;;;;;;1.20;0.80;;;23.00;70.60;;;;;;5038240;28;48075;-69
2022/07/29 06:28:23;;;;;;;1.40;0.70;;;23.00;70.60;;;;;;5035138;28;45465;-69
2022/07/29 06:30:49;;;;;;;1.02;0.70;;;23.00;70.60;;;;;;5045272;28;45314;-70
2022/07/29 06:33:19;;;;;;;3.22;0.85;;;23.00;70.70;;;;;;5037076;27;45409;-70
2022/07/29 06:35:47;;;;;;;1.67;0.93;;;23.00;70.70;;;;;;5039070;27;47550;-70
2022/07/29 06:38:14;;;;;;;1.38;0.80;;;23.00;71.00;;;;;;5038251;28;46195;-70
2022/07/29 06:41:00;;;;;;;2.30;1.00;;;23.00;70.90;;;;;;5038210;27;45442;-70
2022/07/29 06:43:31;;;;;;;1.30;0.90;;;23.00;70.90;;;;;;5037542;27;45442;-70
2022/07/29 06:45:59;;;;;;;1.02;0.73;;;23.00;70.90;;;;;;5035357;27;47903;-70
2022/07/29 06:48:26;;;;;;;1.85;0.88;;;23.00;71.00;;;;;;5037330;28;45446;-70
2022/07/29 06:50:53;;;;;;;2.22;0.85;;;23.00;71.00;;;;;;5036381;27;45439;-70
2022/07/29 06:53:20;;;;;;;1.75;1.00;;;23.00;71.00;;;;;;5072469;27;45578;-70
2022/07/29 06:55:46;;;;;;;1.08;0.98;;;23.00;71.00;;;;;;5038281;28;48060;-70
2022/07/29 06:58:15;;;;;;;2.10;1.00;;;23.00;71.00;;;;;;5035832;27;45452;-70
2022/07/29 07:00:44;;;;;;;1.23;0.75;;;23.00;71.00;;;;;;5038311;27;45382;-70
2022/07/29 07:03:10;;;;;;;1.35;0.80;;;23.00;72.10;;;;;;5036250;28;45517;-70
2022/07/29 07:05:37;;;;;;;2.05;0.80;;;23.00;71.00;;;;;;5037364;28;46621;-70
2022/07/29 07:08:04;;;;;;;2.88;1.13;;;23.00;71.10;;;;;;5036669;28;45533;-70
2022/07/29 07:10:31;;;;;;;1.75;1.00;;;23.10;71.20;;;;;;5037751;27;45505;-70
2022/07/29 07:12:58;;;;;;;1.50;0.80;;;23.10;71.30;;;;;;5038505;28;45412;-70
2022/07/29 07:15:25;;;;;;;1.17;0.90;;;23.10;71.40;;;;;;5036194;28;48437;-70
2022/07/29 07:17:53;;;;;;;2.38;0.80;;;23.10;71.40;;;;;;5037974;28;45769;-70
2022/07/29 07:20:20;;;;;;;1.75;0.80;;;23.10;71.50;;;;;;5037695;27;45210;-70
2022/07/29 07:22:47;;;;;;;3.30;1.15;;;23.10;71.60;;;;;;5038869;28;45568;-70
2022/07/29 07:25:14;;;;;;;1.08;0.80;;;23.10;71.70;;;;;;5036095;28;46257;-70
2022/07/29 07:27:40;;;;;;;1.55;0.90;;;23.10;71.70;;;;;;5037948;28;45459;-69
2022/07/29 07:30:08;;;;;;;1.38;0.95;;;23.10;71.80;;;;;;5036134;28;45417;-70
2022/07/29 07:32:35;;;;;;;2.42;1.02;;;23.10;71.90;;;;;;5038858;28;45393;-71
2022/07/29 07:35:04;;;;;;;1.95;1.02;;;23.10;72.00;;;;;;5036760;27;46563;-70
2022/07/29 07:37:31;;;;;;;2.00;1.00;;;23.10;72.20;;;;;;5037558;28;45452;-71
2022/07/29 07:39:58;;;;;;;2.17;1.00;;;23.10;72.20;;;;;;5035062;27;45638;-70
2022/07/29 07:42:25;;;;;;;2.22;1.00;;;23.10;72.40;;;;;;5036361;28;45676;-71
2022/07/29 07:44:52;;;;;;;1.85;1.02;;;23.10;72.30;;;;;;5035198;27;47566;-70
2022/07/29 07:47:19;;;;;;;1.60;0.90;;;23.10;72.40;;;;;;5036799;28;45346;-70
2022/07/29 07:49:47;;;;;;;2.22;1.20;;;23.10;72.30;;;;;;5037390;28;45254;-70
2022/07/29 07:52:15;;;;;;;2.70;1.10;;;23.10;72.40;;;;;;5030881;28;45569;-71
2022/07/29 07:54:42;;;;;;;1.80;1.00;;;23.10;72.40;;;;;;5035769;27;45333;-70
2022/07/29 07:57:09;;;;;;;2.15;1.20;;;23.10;72.40;;;;;;5035104;27;45202;-70
2022/07/29 07:59:36;;;;;;;2.25;1.00;;;23.10;72.60;;;;;;5035398;27;45481;-70
2022/07/29 08:02:03;;;;;;;3.78;1.05;;;23.00;72.50;;;;;;5037609;27;45591;-70
2022/07/29 08:04:30;;;;;;;2.03;1.15;;;23.10;72.70;;;;;;5039437;28;46410;-70
2022/07/29 08:06:58;;;;;;;1.75;1.00;;;23.10;72.80;;;;;;5037128;28;45746;-70
2022/07/29 08:09:28;;;;;;;1.55;0.80;;;23.10;72.60;;;;;;5039489;27;45566;-70
2022/07/29 08:11:55;;;;;;;1.33;0.77;;;23.10;73.70;;;;;;5038729;28;45423;-70
2022/07/29 08:14:22;;;;;;;1.20;0.90;;;23.10;72.70;;;;;;5039021;28;46305;-70
2022/07/29 08:16:49;;;;;;;2.03;0.98;;;23.10;72.80;;;;;;5039184;27;45315;-70
2022/07/29 08:19:16;;;;;;;2.22;0.90;;;23.10;72.90;;;;;;5040865;27;45638;-71
2022/07/29 08:21:43;;;;;;;1.45;1.00;;;23.10;72.90;;;;;;5039413;28;45440;-69
2022/07/29 08:26:55;;;;;;;1.67;0.90;;;23.10;73.10;;;;;;5039368;28;45482;-70
2022/07/29 08:29:22;;;;;;;1.95;0.90;;;23.10;73.20;;;;;;5036899;28;45317;-70
2022/07/29 08:31:49;;;;;;;1.15;0.82;;;23.10;73.30;;;;;;5034592;27;45628;-70
2022/07/29 08:34:15;;;;;;;1.90;1.10;;;23.10;73.40;;;;;;5035164;28;47093;-70
2022/07/29 08:36:42;;;;;;;3.47;1.35;;;23.10;73.30;;;;;;5036021;27;45417;-70
2022/07/29 08:39:09;;;;;;;1.67;0.82;;;23.10;73.30;;;;;;5036329;27;45401;-70
2022/07/29 08:41:36;;;;;;;1.98;1.02;;;23.10;73.20;;;;;;5031348;28;45360;-70
2022/07/29 08:44:05;;;;;;;1.85;1.00;;;23.10;73.30;;;;;;5033835;28;48061;-71
2022/07/29 08:46:31;;;;;;;1.48;0.82;;;23.10;73.30;;;;;;5033531;27;45472;-70
2022/07/29 08:48:58;;;;;;;6.20;1.40;;;23.10;73.20;;;;;;5034082;28;45433;-68
2022/07/29 08:51:27;;;;;;;9.45;2.15;;;23.20;73.30;;;;;;5034435;27;45617;-68
2022/07/29 08:53:55;;;;;;;7.10;1.70;;;23.20;73.30;;;;;;5032681;28;45350;-68
2022/07/29 08:56:22;;;;;;;8.00;1.92;;;23.20;73.50;;;;;;5033566;28;45383;-67
2022/07/29 08:58:50;;;;;;;6.32;1.58;;;23.20;73.60;;;;;;5035715;28;45397;-72
2022/07/29 09:01:23;;;;;;;6.38;2.05;;;23.20;73.40;;;;;;5034758;27;45583;-70
2022/07/29 09:03:50;;;;;;;9.40;2.00;;;23.20;73.80;;;;;;5032519;28;46240;-68
2022/07/29 09:06:20;;;;;;;7.50;1.48;;;23.20;73.60;;;;;;5073298;27;45443;-71
2022/07/29 09:08:47;;;;;;;4.20;1.55;;;23.20;73.50;;;;;;5062794;27;45410;-70
2022/07/29 09:11:15;;;;;;;4.63;1.17;;;23.20;73.50;;;;;;5037195;27;45337;-68
2022/07/29 09:13:42;;;;;;;35.03;2.00;;;23.20;73.30;;;;;;5035106;27;46624;-72
2022/07/29 09:16:09;;;;;;;11.77;2.33;;;23.30;74.50;;;;;;5042361;28;45558;-71
2022/07/29 09:18:39;;;;;;;20.95;2.00;;;23.30;73.50;;;;;;5037676;27;45479;-70
2022/07/29 09:24:02;;;;;;;7.93;1.55;;;23.30;73.50;;;;;;5036042;28;45436;-71
2022/07/29 09:26:30;;;;;;;2.95;1.10;;;23.40;73.50;;;;;;5037854;27;45469;-70
2022/07/29 09:28:57;;;;;;;3.45;1.30;;;23.40;73.50;;;;;;5047863;27;45514;-71
2022/07/29 09:31:34;;;;;;;5.85;1.40;;;23.40;73.40;;;;;;5035235;27;45313;-71
2022/07/29 09:34:02;;;;;;;7.18;1.50;;;23.30;73.10;;;;;;5031251;28;46268;-71
2022/07/29 09:36:30;;;;;;;5.40;1.30;;;23.40;73.10;;;;;;5038604;27;45433;-70
2022/07/29 09:39:01;;;;;;;2.38;0.93;;;23.40;73.10;;;;;;5040514;28;45448;-71
2022/07/29 09:41:28;;;;;;;2.58;1.00;;;23.30;74.20;;;;;;5034910;27;45471;-70
2022/07/29 09:43:56;;;;;;;3.65;1.20;;;23.30;73.10;;;;;;5035508;28;47111;-70
2022/07/29 09:46:25;;;;;;;2.60;1.08;;;23.30;73.10;;;;;;5042133;27;45440;-70
2022/07/29 09:49:10;;;;;;;3.67;1.10;;;23.30;73.10;;;;;;5038930;28;45362;-71
2022/07/29 09:51:37;;;;;;;2.67;1.27;;;23.30;73.20;;;;;;5037444;27;45505;-70
2022/07/29 09:54:22;;;;;;;2.97;1.35;;;23.30;73.20;;;;;;5038674;27;46609;-70
2022/07/29 09:56:50;;;;;;;2.60;1.30;;;23.40;73.60;;;;;;5036887;28;45416;-70
2022/07/29 09:59:17;;;;;;;2.72;1.30;;;23.40;73.60;;;;;;5039335;27;45254;-70
2022/07/29 10:01:44;;;;;;;8.07;1.40;;;23.40;73.60;;;;;;5037380;28;45461;-71
2022/07/29 10:04:12;;;;;;;1.60;0.70;;;23.40;73.50;;;;;;5060783;27;46374;-71
2022/07/29 10:06:57;;;;;;;3.05;1.20;;;23.40;73.60;;;;;;5032918;27;46282;-70
2022/07/29 10:09:24;;;;;;;3.90;1.30;;;23.40;73.10;;;;;;5036699;27;45673;-70
2022/07/29 10:12:04;;;;;;;2.80;1.02;;;23.40;72.90;;;;;;5039187;27;45466;-70
2022/07/29 10:14:32;;;;;;;2.83;1.20;;;23.40;72.50;;;;;;5038476;28;46588;-70
2022/07/29 10:17:00;;;;;;;1.77;0.95;;;23.40;72.30;;;;;;5039853;28;46311;-71
2022/07/29 10:19:29;;;;;;;2.10;1.00;;;23.40;71.90;;;;;;5038233;28;45367;-69
2022/07/29 10:21:57;;;;;;;3.42;1.45;;;23.40;71.70;;;;;;5038500;28;45291;-70
2022/07/29 10:24:25;;;;;;;2.33;1.15;;;23.40;71.80;;;;;;5035273;28;46399;-70
2022/07/29 10:26:54;;;;;;;2.20;1.35;;;23.40;71.60;;;;;;5037256;28;45778;-70
2022/07/29 10:29:21;;;;;;;2.72;1.27;;;23.40;71.40;;;;;;5038059;27;45369;-70
2022/07/29 10:31:56;;;;;;;3.17;1.30;;;23.40;71.30;;;;;;5037696;27;45325;-70
2022/07/29 10:34:37;;;;;;;4.15;1.50;;;23.40;71.20;;;;;;5035766;27;45522;-70
2022/07/29 10:37:09;;;;;;;2.35;1.30;;;23.40;71.10;;;;;;5036627;28;45370;-70
2022/07/29 10:39:49;;;;;;;3.67;1.27;;;23.40;71.40;;;;;;5035162;28;45275;-70
2022/07/29 10:42:19;;;;;;;3.78;1.80;;;23.50;71.90;;;;;;5029777;27;45351;-70
2022/07/29 10:44:46;;;;;;;3.13;1.27;;;23.50;72.20;;;;;;5029699;28;46317;-71
2022/07/29 10:47:22;;;;;;;1.83;1.27;;;23.40;72.40;;;;;;5037304;28;45576;-70
2022/07/29 10:49:58;;;;;;;2.03;1.17;;;23.40;72.40;;;;;;5035147;28;45460;-70
2022/07/29 10:52:27;;;;;;;3.00;1.40;;;23.40;72.60;;;;;;5031270;28;45366;-69
2022/07/29 10:54:55;;;;;;;2.58;1.17;;;23.50;72.80;;;;;;5037295;27;46568;-70
2022/07/29 10:57:26;;;;;;;1.95;1.20;;;23.40;72.80;;;;;;5036688;28;45487;-70
2022/07/29 11:00:27;;;;;;;2.53;1.15;;;23.40;72.60;;;;;;5038205;27;45529;-70
2022/07/29 11:02:56;;;;;;;2.25;1.38;;;23.40;72.60;;;;;;5034741;28;45312;-70
2022/07/29 11:05:24;;;;;;;2.33;1.00;;;23.50;72.80;;;;;;5036400;27;45424;-70
2022/07/29 11:08:23;;;;;;;2.83;1.30;;;23.50;72.90;;;;;;5036544;28;45379;-70
2022/07/29 11:10:54;;;;;;;1.77;1.05;;;23.50;74.00;;;;;;5036725;27;45436;-70
2022/07/29 11:13:46;;;;;;;2.45;1.20;;;23.50;73.10;;;;;;5033052;27;45464;-70
2022/07/29 11:16:14;;;;;;;3.20;1.20;;;23.50;73.00;;;;;;5032373;28;47732;-70
2022/07/29 11:19:14;;;;;;;2.65;1.20;;;23.50;73.10;;;;;;5036700;27;45352;-70
2022/07/29 11:21:46;;;;;;;3.53;1.58;;;23.50;72.90;;;;;;5031572;27;45665;-70
2022/07/29 11:24:14;;;;;;;4.75;1.40;;;23.50;73.00;;;;;;5027050;28;45641;-70
2022/07/29 11:26:42;;;;;;;4.38;1.30;;;23.50;73.60;;;;;;5027426;27;48295;-69
2022/07/29 11:29:19;;;;;;;5.65;1.88;;;23.60;74.60;;;;;;5033703;28;45404;-68
2022/07/29 11:31:54;;;;;;;9.90;3.35;;;23.60;73.40;;;;;;5033803;28;45513;-70
2022/07/29 11:34:24;;;;;;;12.32;5.93;;;23.60;73.50;;;;;;5030348;27;45418;-68
2022/07/29 11:37:17;;;;;;;5.57;3.33;;;23.60;73.80;;;;;;5040165;28;46093;-68
2022/07/29 11:39:46;;;;;;;3.92;1.90;;;23.60;73.50;;;;;;5041165;28;45566;-69
2022/07/29 11:42:39;;;;;;;4.88;2.22;;;23.60;73.40;;;;;;5040063;28;45452;-69
2022/07/29 11:45:09;;;;;;;4.80;2.20;;;23.60;73.30;;;;;;5039341;27;45499;-67
2022/07/29 11:47:38;;;;;;;3.35;1.58;;;23.60;73.60;;;;;;5023973;28;46412;-69
2022/07/29 11:50:07;;;;;;;4.88;2.20;;;23.60;73.60;;;;;;5036165;27;45418;-69
2022/07/29 11:52:37;;;;;;;4.78;2.22;;;23.60;73.80;;;;;;5035657;28;45635;-69
2022/07/29 11:55:07;;;;;;;2.58;1.60;;;23.60;73.70;;;;;;5037383;27;45367;-69
2022/07/29 11:57:35;;;;;;;3.25;1.75;;;23.60;73.60;;;;;;5034650;27;46512;-68
2022/07/29 12:00:03;;;;;;;3.45;1.52;;;23.60;75.40;;;;;;5019580;28;45237;-67
2022/07/29 12:02:41;;;;;;;13.52;2.03;;;23.60;76.10;;;;;;5030392;28;45409;-70
2022/07/29 12:05:09;;;;;;;5.75;1.45;;;23.70;77.10;;;;;;5036134;27;45334;-70
2022/07/29 12:07:38;;;;;;;3.47;1.67;;;23.70;76.50;;;;;;5035300;28;45426;-70
2022/07/29 12:10:06;;;;;;;3.92;1.58;;;23.80;76.30;;;;;;5038035;28;45347;-69
2022/07/29 12:12:33;;;;;;;4.53;1.70;;;23.90;75.90;;;;;;5032216;28;45412;-69
2022/07/29 12:15:12;;;;;;;1.85;1.20;;;24.10;76.00;;;;;;5036588;28;45428;-69
2022/07/29 12:17:38;;;;;;;5.38;1.60;;;24.20;76.30;;;;;;5032558;27;46257;-69
2022/07/29 12:20:06;;;;;;;3.20;1.40;;;24.40;75.90;;;;;;5036008;27;45460;-69
2022/07/29 12:22:36;;;;;;;2.63;1.35;;;24.50;76.60;;;;;;5037417;28;45318;-69
2022/07/29 12:25:07;;;;;;;3.72;1.67;;;24.60;76.80;;;;;;5035732;27;45635;-70
2022/07/29 12:27:33;;;;;;;3.83;1.67;;;24.60;77.10;;;;;;5036256;28;47317;-69
2022/07/29 12:30:02;;;;;;;2.60;1.40;;;24.70;76.60;;;;;;5035945;27;45480;-70
2022/07/29 12:32:33;;;;;;;3.78;1.50;;;24.80;77.00;;;;;;5032601;27;45379;-69
2022/07/29 12:35:00;;;;;;;3.92;1.60;;;24.90;76.30;;;;;;5032306;28;45497;-69
2022/07/29 12:37:27;;;;;;;5.43;2.10;;;25.00;77.20;;;;;;5042939;28;46595;-69
2022/07/29 12:39:54;;;;;;;6.32;1.50;;;25.00;76.00;;;;;;5040754;28;45535;-69
2022/07/29 12:42:22;;;;;;;6.57;2.10;;;25.10;76.00;;;;;;5034924;28;45553;-69
2022/07/29 12:44:51;;;;;;;6.38;1.45;;;25.20;76.30;;;;;;5039305;28;45394;-70
2022/07/29 12:47:19;;;;;;;3.35;1.80;;;25.20;75.00;;;;;;5048540;28;48048;-69
2022/07/29 12:49:46;;;;;;;3.55;1.65;;;25.10;74.30;;;;;;5041689;28;45524;-69
2022/07/29 12:52:29;;;;;;;4.63;1.60;;;25.10;73.70;;;;;;5041243;27;45605;-70
2022/07/29 12:54:57;;;;;;;2.83;1.45;;;25.10;73.60;;;;;;5039262;28;45813;-70
2022/07/29 12:57:25;;;;;;;5.88;1.92;;;25.00;74.20;;;;;;5038052;28;47527;-69
2022/07/29 13:00:09;;;;;;;6.60;1.73;;;25.10;74.00;;;;;;5043113;27;45389;-69
2022/07/29 13:02:36;;;;;;;4.82;1.77;;;25.10;74.30;;;;;;5042721;28;45473;-69